Portada
METAR-TAF:

METAR-TAF

Aeropuertos :

Aeropuerto de Córdoba

Córdoba, España

latitud: 37-51N, longitud: 004-51W, altitud: 90 m

Observación

El informe se hizo hace 33 minutos, a las 04:30 UTC
Viento 4 kt del este
Temperatura 3°C
Humedad 100%
Presión 1028 hPa
Visibilidad: 8000 m

METAR: LEBA 150430Z AUTO 09004KT 8000 NCD 03/03 Q1028

Hora: 06:03 (05:03 UTC)

Pronóstico

El informe se hizo hace 3 horas y 3 minutos, a las 02:00 UTC
Pronóstico válido del 15 a las 03 UTC al 15 a las 12 UTC
Viento 4 kt del este
Visibilidad 10 km o más
sin nubes por debajo de 1500 m y sin presencia de cumulonimbus.
Probabilidad 30% :
Temporalmente
del 15 a las 03 UTC al 15 a las 08 UTC
Visibilidad: 4000 m
neblina

TAF: LEBA 150200Z 1503/1512 08004KT CAVOK PROB30 TEMPO 1503/1508 4000 BR

Observaciones y pronósticos meteorológicos de más de 4000 aeropuertos (mensajes METAR y TAF).

Los puntos amarillos y rojos representan las estaciones disponibles.

Ponga el ratón en el punto deseado para ver el nombre de la estación.

Haga clic para ver las observaciones y los pronósticos meteorológicos.

Para cambiar el mapa : haga clic en los botones verdes con una cruz de color negro para hacer un zoom, en el botón verde con un guión para alejar o en las flechas verdes para mapas adyacentes.


METAR-TAF: